Time;durP1;ratioP1;P1;durP2;ratioP2;P2;SDS_P1;SDS_P2;PMS_P1;PMS_P2;Temp;Humidity;BMP_temperature;BMP_pressure;BME280_temperature;BME280_humidity;BME280_pressure;Samples;Min_cycle;Max_cycle;Signal;HPM_P1;HPM_P2
2022/02/07 00:00:40;;;;;;;24.77;3.65;;;;;;;;;;5101770;28;20040;-62
2022/02/07 00:03:16;;;;;;;16.90;3.05;;;;;;;;;;5098139;28;20438;-62
2022/02/07 00:05:43;;;;;;;26.08;2.80;;;;;;;;;;5092203;28;20128;-62
2022/02/07 00:08:11;;;;;;;29.45;3.72;;;;;;;;;;5099217;28;20036;-62
2022/02/07 00:10:38;;;;;;;29.60;4.18;;;;;;;;;;5107587;27;20087;-62
2022/02/07 00:13:05;;;;;;;34.92;4.68;;;;;;;;;;5110557;27;20475;-62
2022/02/07 00:15:31;;;;;;;27.58;4.03;;;;;;;;;;5106614;27;20054;-62
2022/02/07 00:17:57;;;;;;;19.88;3.85;;;;;;;;;;5113441;27;20366;-62
2022/02/07 00:20:25;;;;;;;25.92;3.90;;;;;;;;;;5108548;27;20075;-62
2022/02/07 00:22:52;;;;;;;20.88;3.00;;;;;;;;;;5109286;28;20488;-62
2022/02/07 00:25:19;;;;;;;23.27;3.78;;;;;;;;;;5100484;28;20075;-62
2022/02/07 00:27:45;;;;;;;16.60;2.40;;;;;;;;;;5108077;27;20040;-62
2022/02/07 00:30:12;;;;;;;16.92;2.20;;;;;;;;;;5101662;28;20555;-62
2022/02/07 00:32:39;;;;;;;18.80;2.83;;;;;;;;;;5105611;28;20479;-62
2022/02/07 00:35:07;;;;;;;17.83;2.72;;;;;;;;;;5112885;27;20043;-62
2022/02/07 00:37:34;;;;;;;16.48;3.50;;;;;;;;;;5112763;27;20040;-62
2022/02/07 00:40:27;;;;;;;23.77;2.55;;;;;;;;;;5107765;27;20044;-62
2022/02/07 00:42:56;;;;;;;25.90;3.72;;;;;;;;;;5111531;27;20052;-62
2022/02/07 00:48:03;;;;;;;23.00;3.88;;;;;;;;;;5105272;28;20044;-62
2022/02/07 00:50:30;;;;;;;18.08;2.45;;;;;;;;;;5096124;27;20442;-62
2022/02/07 00:52:56;;;;;;;24.40;3.33;;;;;;;;;;5096471;28;20395;-62
2022/02/07 00:55:23;;;;;;;17.48;3.70;;;;;;;;;;5111358;28;20479;-62
2022/02/07 00:57:49;;;;;;;24.30;3.60;;;;;;;;;;5096656;28;20184;-62
2022/02/07 01:00:15;;;;;;;17.70;2.75;;;;;;;;;;5106100;27;20379;-62
2022/02/07 01:02:43;;;;;;;20.52;3.03;;;;;;;;;;5110567;27;20826;-62
2022/02/07 01:05:09;;;;;;;13.18;2.45;;;;;;;;;;5106582;28;20058;-62
2022/02/07 01:07:35;;;;;;;16.55;3.22;;;;;;;;;;5109301;27;20043;-62
2022/02/07 01:10:01;;;;;;;17.55;3.85;;;;;;;;;;5108721;28;20055;-62
2022/02/07 01:13:03;;;;;;;21.20;3.40;;;;;;;;;;5111992;28;20428;-62
2022/02/07 01:53:01;;;;;;;17.23;2.55;;;;;;;;;;5104310;28;20079;-62
2022/02/07 01:57:53;;;;;;;19.10;2.58;;;;;;;;;;5101762;28;20124;-61
2022/02/07 02:00:19;;;;;;;16.92;2.67;;;;;;;;;;5098987;27;20487;-62
2022/02/07 02:02:46;;;;;;;28.75;5.10;;;;;;;;;;5106320;27;20524;-62
2022/02/07 02:05:12;;;;;;;42.97;7.75;;;;;;;;;;5094939;28;20835;-62
2022/02/07 02:07:38;;;;;;;29.98;3.95;;;;;;;;;;5100640;28;20032;-62
2022/02/07 02:10:05;;;;;;;27.23;4.43;;;;;;;;;;5100186;28;20539;-62
2022/02/07 02:12:35;;;;;;;33.60;6.13;;;;;;;;;;5105541;27;20074;-61
2022/02/07 02:20:46;;;;;;;38.72;6.65;;;;;;;;;;5098459;27;20541;-62
2022/02/07 02:32:47;;;;;;;26.17;4.45;;;;;;;;;;5100560;28;20087;-63
2022/02/07 02:36:31;;;;;;;26.65;4.70;;;;;;;;;;5100536;28;20518;-62
2022/02/07 02:46:49;;;;;;;34.70;5.63;;;;;;;;;;5104884;28;20171;-62
2022/02/07 02:49:16;;;;;;;41.75;4.93;;;;;;;;;;5101760;28;20088;-62
2022/02/07 02:51:42;;;;;;;35.53;5.18;;;;;;;;;;5107202;27;20086;-62
2022/02/07 02:54:09;;;;;;;32.55;4.13;;;;;;;;;;5106804;28;20191;-61
2022/02/07 02:56:36;;;;;;;31.20;5.85;;;;;;;;;;5105223;28;20107;-62
2022/02/07 02:59:02;;;;;;;36.97;5.32;;;;;;;;;;5105570;28;20036;-62
2022/02/07 03:01:28;;;;;;;22.35;4.15;;;;;;;;;;5105288;27;20059;-62
2022/02/07 03:03:54;;;;;;;20.20;4.07;;;;;;;;;;5103112;28;20069;-62
2022/02/07 03:06:20;;;;;;;27.45;3.65;;;;;;;;;;5102192;28;20130;-62
2022/02/07 03:08:46;;;;;;;22.98;3.55;;;;;;;;;;5103869;28;20075;-62
2022/02/07 03:11:17;;;;;;;31.02;4.20;;;;;;;;;;5106781;28;20050;-62
2022/02/07 03:18:56;;;;;;;26.38;3.53;;;;;;;;;;5102163;28;20044;-62
2022/02/07 03:21:22;;;;;;;24.80;4.05;;;;;;;;;;5103131;28;20046;-62
2022/02/07 03:23:48;;;;;;;32.50;3.97;;;;;;;;;;5104614;28;20063;-62
2022/02/07 03:26:17;;;;;;;32.40;3.97;;;;;;;;;;5099887;28;20101;-62
2022/02/07 03:28:43;;;;;;;32.15;4.90;;;;;;;;;;5107674;28;20418;-62
2022/02/07 03:31:10;;;;;;;30.10;4.63;;;;;;;;;;5105719;28;20079;-62
2022/02/07 03:33:37;;;;;;;29.08;6.47;;;;;;;;;;5099254;28;20436;-62
2022/02/07 03:36:03;;;;;;;26.05;5.03;;;;;;;;;;5098341;28;20051;-62
2022/02/07 03:38:30;;;;;;;24.88;4.15;;;;;;;;;;5103814;28;20044;-62
2022/02/07 03:40:56;;;;;;;40.05;5.95;;;;;;;;;;5105249;28;20047;-62
2022/02/07 03:43:23;;;;;;;42.83;7.90;;;;;;;;;;5101427;28;20032;-62
2022/02/07 03:45:49;;;;;;;35.33;5.40;;;;;;;;;;5102117;27;20053;-62
2022/02/07 03:48:15;;;;;;;45.97;6.75;;;;;;;;;;5108134;28;20043;-63
2022/02/07 03:50:41;;;;;;;38.13;7.25;;;;;;;;;;5109981;28;20118;-62
2022/02/07 03:53:08;;;;;;;28.58;4.43;;;;;;;;;;5106500;28;20464;-62
2022/02/07 03:55:34;;;;;;;37.65;5.05;;;;;;;;;;5110811;28;20050;-62
2022/02/07 03:58:00;;;;;;;32.47;5.28;;;;;;;;;;5109298;27;20040;-63
2022/02/07 04:00:27;;;;;;;22.75;3.88;;;;;;;;;;5113366;27;20040;-62
2022/02/07 04:02:54;;;;;;;25.80;3.63;;;;;;;;;;5103967;27;20043;-62
2022/02/07 04:05:45;;;;;;;31.27;4.90;;;;;;;;;;5114384;28;20046;-62
2022/02/07 04:08:13;;;;;;;29.73;4.63;;;;;;;;;;5131111;27;20048;-62
2022/02/07 04:10:52;;;;;;;22.88;4.35;;;;;;;;;;5113704;28;20406;-62
2022/02/07 04:13:26;;;;;;;30.98;4.00;;;;;;;;;;5111677;28;20035;-62
2022/02/07 04:15:54;;;;;;;33.58;5.75;;;;;;;;;;5114364;28;20372;-62
2022/02/07 04:18:20;;;;;;;35.25;4.82;;;;;;;;;;5109468;28;20052;-62
2022/02/07 04:20:46;;;;;;;37.40;4.47;;;;;;;;;;5100171;28;20104;-62
2022/02/07 04:23:12;;;;;;;37.60;5.07;;;;;;;;;;5110436;28;20081;-62
2022/02/07 04:25:38;;;;;;;37.50;6.95;;;;;;;;;;5113407;28;20438;-62
2022/02/07 04:28:05;;;;;;;36.10;7.82;;;;;;;;;;5114321;28;20457;-62
2022/02/07 04:30:31;;;;;;;35.05;5.55;;;;;;;;;;5113846;28;20341;-62
2022/02/07 04:32:58;;;;;;;36.15;4.65;;;;;;;;;;5110229;28;20459;-62
2022/02/07 04:35:24;;;;;;;57.53;8.35;;;;;;;;;;5109976;28;20484;-62
2022/02/07 04:37:50;;;;;;;20.95;4.18;;;;;;;;;;5113898;28;20392;-62
2022/02/07 04:40:16;;;;;;;32.58;5.03;;;;;;;;;;5107682;28;20032;-62
2022/02/07 04:42:43;;;;;;;35.42;5.78;;;;;;;;;;5107223;28;20508;-62
2022/02/07 04:55:49;;;;;;;34.15;5.25;;;;;;;;;;5113531;28;20078;-62
2022/02/07 04:58:43;;;;;;;35.72;5.22;;;;;;;;;;5101822;27;20051;-62
2022/02/07 05:03:44;;;;;;;49.63;8.23;;;;;;;;;;5107824;27;20086;-61
2022/02/07 05:14:26;;;;;;;48.20;6.13;;;;;;;;;;5112362;28;20047;-62
2022/02/07 05:16:54;;;;;;;33.75;5.22;;;;;;;;;;5113542;28;20051;-62
2022/02/07 05:19:21;;;;;;;34.40;6.60;;;;;;;;;;5114108;27;20040;-62
2022/02/07 05:21:48;;;;;;;20.90;4.57;;;;;;;;;;5107574;28;20043;-63
2022/02/07 05:24:14;;;;;;;16.00;2.30;;;;;;;;;;5111561;28;20047;-62
2022/02/07 05:26:40;;;;;;;8.85;1.77;;;;;;;;;;5109145;28;20526;-62
2022/02/07 05:29:07;;;;;;;13.23;2.53;;;;;;;;;;5109014;28;20042;-62
2022/02/07 05:31:33;;;;;;;7.82;1.58;;;;;;;;;;5113191;28;20039;-62
2022/02/07 05:33:59;;;;;;;24.10;2.63;;;;;;;;;;5113442;28;20500;-62
2022/02/07 05:36:26;;;;;;;18.75;3.28;;;;;;;;;;5111995;28;20043;-62
2022/02/07 05:38:56;;;;;;;26.73;3.28;;;;;;;;;;5108837;28;20036;-61
2022/02/07 05:41:22;;;;;;;19.00;2.90;;;;;;;;;;5102951;28;20035;-62
2022/02/07 05:43:51;;;;;;;15.98;2.90;;;;;;;;;;5107834;28;20035;-63
2022/02/07 05:46:17;;;;;;;20.50;4.15;;;;;;;;;;5112992;28;20486;-62
2022/02/07 05:48:44;;;;;;;32.47;3.38;;;;;;;;;;5111765;28;20047;-62
2022/02/07 05:51:10;;;;;;;24.65;3.55;;;;;;;;;;5104843;28;20042;-62
2022/02/07 05:53:36;;;;;;;24.05;3.10;;;;;;;;;;5108244;28;20052;-61
2022/02/07 05:56:02;;;;;;;31.50;3.30;;;;;;;;;;5106470;28;20139;-62
2022/02/07 05:58:28;;;;;;;33.47;3.92;;;;;;;;;;5109812;28;20114;-62
2022/02/07 06:00:55;;;;;;;22.40;4.32;;;;;;;;;;5104945;28;20040;-62
2022/02/07 06:03:22;;;;;;;31.23;3.92;;;;;;;;;;5100533;28;20056;-62
2022/02/07 06:05:49;;;;;;;19.88;3.47;;;;;;;;;;5103125;27;20042;-62
2022/02/07 06:08:16;;;;;;;19.60;2.55;;;;;;;;;;5108814;28;20051;-62
2022/02/07 06:10:44;;;;;;;25.58;3.17;;;;;;;;;;5111214;28;20413;-62
2022/02/07 06:13:12;;;;;;;30.08;5.00;;;;;;;;;;5107395;28;20059;-62
2022/02/07 06:15:38;;;;;;;19.83;3.90;;;;;;;;;;5111312;28;20491;-62
2022/02/07 06:18:04;;;;;;;35.35;4.15;;;;;;;;;;5111411;28;20043;-62
2022/02/07 06:20:31;;;;;;;21.05;3.88;;;;;;;;;;5104462;28;20119;-62
2022/02/07 06:22:57;;;;;;;35.50;4.75;;;;;;;;;;5096923;27;20052;-62
2022/02/07 06:25:23;;;;;;;30.35;4.65;;;;;;;;;;5095215;28;20036;-62
2022/02/07 06:27:51;;;;;;;36.78;5.38;;;;;;;;;;5106037;28;20050;-62
2022/02/07 06:30:17;;;;;;;51.25;6.35;;;;;;;;;;5107148;27;20053;-62
2022/02/07 06:32:43;;;;;;;37.42;6.03;;;;;;;;;;5102691;27;20071;-62
2022/02/07 06:35:09;;;;;;;34.42;4.85;;;;;;;;;;5105534;28;20105;-62
2022/02/07 06:37:36;;;;;;;31.17;4.93;;;;;;;;;;5107391;28;20503;-61
2022/02/07 06:40:02;;;;;;;48.90;6.50;;;;;;;;;;5104795;28;20108;-62
2022/02/07 06:42:28;;;;;;;40.65;5.60;;;;;;;;;;5109486;28;20483;-62
2022/02/07 06:44:54;;;;;;;44.97;9.05;;;;;;;;;;5109344;27;20100;-62
2022/02/07 06:47:21;;;;;;;32.42;7.30;;;;;;;;;;5107489;28;20391;-62
2022/02/07 06:49:47;;;;;;;34.58;6.38;;;;;;;;;;5092642;28;20044;-62
2022/02/07 06:52:13;;;;;;;48.38;5.60;;;;;;;;;;5104828;27;20080;-62
2022/02/07 06:54:39;;;;;;;36.03;5.13;;;;;;;;;;5106947;28;20500;-62
2022/02/07 06:57:05;;;;;;;44.13;5.45;;;;;;;;;;5109012;28;20095;-62
2022/02/07 06:59:39;;;;;;;40.45;6.13;;;;;;;;;;5107700;28;20491;-62
2022/02/07 07:02:05;;;;;;;37.70;5.88;;;;;;;;;;5104295;28;20063;-62
2022/02/07 07:04:31;;;;;;;38.55;5.82;;;;;;;;;;5096885;27;20059;-62
2022/02/07 07:06:57;;;;;;;47.13;6.55;;;;;;;;;;5099329;28;20051;-62
2022/02/07 07:09:23;;;;;;;42.42;5.35;;;;;;;;;;5107576;28;20046;-62
2022/02/07 07:11:50;;;;;;;37.38;5.45;;;;;;;;;;5110141;28;20051;-62
2022/02/07 07:14:27;;;;;;;37.88;7.38;;;;;;;;;;5109358;28;20040;-62
2022/02/07 07:16:54;;;;;;;39.00;5.40;;;;;;;;;;5102868;28;20066;-62
2022/02/07 07:19:20;;;;;;;48.97;5.18;;;;;;;;;;5100629;28;20040;-62
2022/02/07 07:21:47;;;;;;;51.92;8.02;;;;;;;;;;5100824;28;20043;-62
2022/02/07 07:24:14;;;;;;;40.70;6.60;;;;;;;;;;5104183;28;20075;-63
2022/02/07 07:26:40;;;;;;;41.75;6.82;;;;;;;;;;5110271;28;20063;-64
2022/02/07 07:29:11;;;;;;;36.40;6.18;;;;;;;;;;5106259;28;20051;-62
2022/02/07 07:31:43;;;;;;;32.28;5.55;;;;;;;;;;5106077;28;20101;-62
2022/02/07 07:34:12;;;;;;;48.00;7.47;;;;;;;;;;5111194;28;20036;-62
2022/02/07 07:36:41;;;;;;;33.17;4.28;;;;;;;;;;5113398;28;20060;-62
2022/02/07 07:39:07;;;;;;;32.90;4.60;;;;;;;;;;5107222;28;20044;-61
2022/02/07 07:41:33;;;;;;;39.38;5.15;;;;;;;;;;5104910;28;20824;-63
2022/02/07 07:43:59;;;;;;;46.47;6.18;;;;;;;;;;5114715;28;20046;-62
2022/02/07 07:46:29;;;;;;;38.20;7.07;;;;;;;;;;5109169;28;20074;-62
2022/02/07 07:49:01;;;;;;;33.25;4.45;;;;;;;;;;5107985;28;20043;-62
2022/02/07 07:54:16;;;;;;;42.33;5.35;;;;;;;;;;5109872;28;20143;-62
2022/02/07 08:02:16;;;;;;;42.80;6.18;;;;;;;;;;5110078;28;20089;-62
2022/02/07 08:04:44;;;;;;;37.72;6.53;;;;;;;;;;5109158;28;20126;-62
2022/02/07 08:07:18;;;;;;;46.42;5.93;;;;;;;;;;5110543;28;20066;-62
2022/02/07 08:10:05;;;;;;;34.17;5.78;;;;;;;;;;5109625;28;20414;-62
2022/02/07 08:12:34;;;;;;;42.97;7.47;;;;;;;;;;5093219;28;20074;-62
2022/02/07 08:15:00;;;;;;;49.08;8.80;;;;;;;;;;5107817;28;20588;-61
2022/02/07 08:17:28;;;;;;;42.95;5.53;;;;;;;;;;5104635;28;20101;-61
2022/02/07 08:19:54;;;;;;;43.70;8.57;;;;;;;;;;5102230;28;20047;-63
2022/02/07 08:22:23;;;;;;;39.38;5.68;;;;;;;;;;5104421;28;20131;-65
2022/02/07 08:24:55;;;;;;;42.38;6.57;;;;;;;;;;5102951;28;20332;-62
2022/02/07 08:27:22;;;;;;;28.52;5.38;;;;;;;;;;5106578;28;20067;-63
2022/02/07 08:29:48;;;;;;;36.42;6.63;;;;;;;;;;5112080;27;20040;-62
2022/02/07 08:32:14;;;;;;;38.10;6.20;;;;;;;;;;5114220;27;20046;-63
2022/02/07 08:34:40;;;;;;;34.65;5.82;;;;;;;;;;5116419;27;20039;-65
2022/02/07 08:37:07;;;;;;;46.42;8.00;;;;;;;;;;5104602;27;20043;-64
2022/02/07 08:39:34;;;;;;;40.22;6.70;;;;;;;;;;5095727;28;20055;-65
2022/02/07 08:42:00;;;;;;;36.22;5.97;;;;;;;;;;5094003;28;20059;-64
2022/02/07 08:44:27;;;;;;;33.35;4.55;;;;;;;;;;5100021;27;20056;-65
2022/02/07 08:46:54;;;;;;;45.30;5.90;;;;;;;;;;5096228;28;20047;-65
2022/02/07 08:49:20;;;;;;;37.03;6.55;;;;;;;;;;5102404;28;20119;-64
2022/02/07 08:51:48;;;;;;;47.75;7.85;;;;;;;;;;5093951;28;20048;-65
2022/02/07 08:54:20;;;;;;;38.35;6.18;;;;;;;;;;5108877;28;20138;-65
2022/02/07 08:56:52;;;;;;;40.15;6.88;;;;;;;;;;5108969;27;20108;-65
2022/02/07 08:59:19;;;;;;;40.88;6.15;;;;;;;;;;5120644;27;20580;-61
2022/02/07 09:01:53;;;;;;;46.47;7.35;;;;;;;;;;5103970;28;20069;-60
2022/02/07 09:07:12;;;;;;;34.45;4.68;;;;;;;;;;5109053;27;20100;-71
2022/02/07 09:09:41;;;;;;;34.45;6.97;;;;;;;;;;5105056;28;20148;-63
2022/02/07 09:12:08;;;;;;;30.77;5.80;;;;;;;;;;5109792;27;20382;-63
2022/02/07 09:14:42;;;;;;;27.58;5.50;;;;;;;;;;5105166;28;20421;-61
2022/02/07 09:17:08;;;;;;;31.35;5.32;;;;;;;;;;5111701;28;20040;-61
2022/02/07 09:19:36;;;;;;;28.48;6.07;;;;;;;;;;5106444;28;20040;-61
2022/02/07 09:22:02;;;;;;;31.58;4.18;;;;;;;;;;5107282;28;20097;-61
2022/02/07 09:24:29;;;;;;;35.58;5.57;;;;;;;;;;5105640;28;20035;-61
2022/02/07 09:26:55;;;;;;;30.67;4.28;;;;;;;;;;5105976;27;20039;-61
2022/02/07 09:29:22;;;;;;;26.08;4.25;;;;;;;;;;5106898;27;20047;-61
2022/02/07 09:31:48;;;;;;;24.92;3.75;;;;;;;;;;5106260;27;20039;-61
2022/02/07 09:34:14;;;;;;;31.33;5.00;;;;;;;;;;5108177;27;20049;-61
2022/02/07 09:36:41;;;;;;;40.30;7.35;;;;;;;;;;5106648;27;20043;-61
2022/02/07 09:39:07;;;;;;;40.13;7.65;;;;;;;;;;5107035;27;20137;-61
2022/02/07 09:41:34;;;;;;;25.23;4.50;;;;;;;;;;5103383;27;20172;-60
2022/02/07 09:44:02;;;;;;;25.55;4.40;;;;;;;;;;5110116;28;20069;-61
2022/02/07 09:46:41;;;;;;;41.88;7.03;;;;;;;;;;5109089;28;20053;-61
2022/02/07 09:49:07;;;;;;;32.72;5.05;;;;;;;;;;5107738;28;20036;-61
2022/02/07 09:51:33;;;;;;;67.05;9.20;;;;;;;;;;5104708;28;20480;-61
2022/02/07 09:53:59;;;;;;;25.38;4.43;;;;;;;;;;5107310;28;20164;-62
2022/02/07 09:56:26;;;;;;;40.38;5.38;;;;;;;;;;5105120;28;20048;-62
2022/02/07 09:58:53;;;;;;;31.83;4.35;;;;;;;;;;5106743;28;20071;-62
2022/02/07 10:01:27;;;;;;;25.38;4.82;;;;;;;;;;5113761;27;20059;-61
2022/02/07 10:04:00;;;;;;;35.45;5.53;;;;;;;;;;5105465;28;20120;-61
2022/02/07 10:09:18;;;;;;;35.63;5.65;;;;;;;;;;5108593;28;20484;-61
2022/02/07 10:12:00;;;;;;;35.33;6.65;;;;;;;;;;5110536;28;20457;-61
2022/02/07 10:14:35;;;;;;;32.95;4.55;;;;;;;;;;5101867;28;20420;-61
2022/02/07 10:37:37;;;;;;;24.15;4.28;;;;;;;;;;5112181;28;20055;-62
2022/02/07 10:39:30;;;;;;;28.75;5.65;;;;;;;;;;5111518;28;20075;-62
2022/02/07 10:42:18;;;;;;;28.73;5.10;;;;;;;;;;5112354;28;20054;-62
2022/02/07 10:44:59;;;;;;;34.13;5.70;;;;;;;;;;5107773;28;20060;-61
2022/02/07 10:47:29;;;;;;;33.50;4.50;;;;;;;;;;5112026;28;20118;-61
2022/02/07 10:50:04;;;;;;;29.83;5.15;;;;;;;;;;5112094;28;20106;-62
2022/02/07 10:52:47;;;;;;;30.15;5.13;;;;;;;;;;5110887;28;20035;-62
2022/02/07 10:55:21;;;;;;;38.25;5.47;;;;;;;;;;5110080;28;20070;-62
2022/02/07 10:57:47;;;;;;;37.83;7.47;;;;;;;;;;5111980;28;20108;-62
2022/02/07 11:00:15;;;;;;;32.83;4.85;;;;;;;;;;5111023;28;20051;-62
2022/02/07 11:03:00;;;;;;;35.83;6.40;;;;;;;;;;5111851;28;20047;-62
2022/02/07 11:05:29;;;;;;;27.15;3.95;;;;;;;;;;5110717;28;20100;-62
2022/02/07 11:08:06;;;;;;;28.50;4.65;;;;;;;;;;5111310;28;20483;-62
2022/02/07 11:11:00;;;;;;;27.10;4.47;;;;;;;;;;5112297;28;20031;-61
2022/02/07 11:13:45;;;;;;;31.50;5.60;;;;;;;;;;5111055;28;20054;-62
2022/02/07 11:16:26;;;;;;;30.55;4.50;;;;;;;;;;5109046;28;20043;-62
2022/02/07 11:19:05;;;;;;;23.08;4.65;;;;;;;;;;5110127;28;20061;-62
2022/02/07 11:21:48;;;;;;;29.75;4.68;;;;;;;;;;5109192;28;20043;-61
2022/02/07 11:24:26;;;;;;;27.13;5.47;;;;;;;;;;5109814;28;20073;-61
2022/02/07 11:26:52;;;;;;;22.23;4.28;;;;;;;;;;5109379;28;20051;-62
2022/02/07 11:29:38;;;;;;;28.10;4.07;;;;;;;;;;5110391;28;20063;-62
2022/02/07 11:32:05;;;;;;;31.42;3.75;;;;;;;;;;5108055;28;20175;-62
2022/02/07 11:34:49;;;;;;;38.15;5.65;;;;;;;;;;5100522;28;20375;-61
2022/02/07 11:37:17;;;;;;;23.20;3.95;;;;;;;;;;5109927;28;20435;-62
2022/02/07 11:39:48;;;;;;;23.55;4.05;;;;;;;;;;5096796;28;20178;-62
2022/02/07 11:42:14;;;;;;;26.50;3.72;;;;;;;;;;5101802;28;20051;-62
2022/02/07 11:44:45;;;;;;;25.85;4.13;;;;;;;;;;5108604;28;20044;-62
2022/02/07 11:47:14;;;;;;;29.52;3.97;;;;;;;;;;5103163;28;20047;-62
2022/02/07 11:49:41;;;;;;;27.98;4.25;;;;;;;;;;5101622;28;20052;-62
2022/02/07 11:52:25;;;;;;;23.80;3.60;;;;;;;;;;5098570;28;20044;-61
2022/02/07 11:54:58;;;;;;;23.98;4.28;;;;;;;;;;5103674;28;20047;-61
2022/02/07 11:57:32;;;;;;;22.83;4.97;;;;;;;;;;5102667;28;21640;-61
2022/02/07 11:59:59;;;;;;;26.02;4.35;;;;;;;;;;5104467;28;20090;-61
2022/02/07 12:02:37;;;;;;;27.33;4.22;;;;;;;;;;5106127;28;20088;-62
2022/02/07 12:05:08;;;;;;;30.05;4.30;;;;;;;;;;5107006;27;20042;-61
2022/02/07 12:07:38;;;;;;;25.27;4.20;;;;;;;;;;5112975;27;20104;-61
2022/02/07 12:12:40;;;;;;;27.88;4.03;;;;;;;;;;5119573;27;20042;-61
2022/02/07 12:15:08;;;;;;;16.33;4.40;;;;;;;;;;5120266;27;20051;-61
2022/02/07 12:17:41;;;;;;;25.48;4.10;;;;;;;;;;5114839;27;20074;-61
2022/02/07 12:20:08;;;;;;;19.33;3.60;;;;;;;;;;5110895;28;20092;-61
2022/02/07 12:22:50;;;;;;;23.45;4.65;;;;;;;;;;5112732;27;20548;-61
2022/02/07 12:25:33;;;;;;;36.33;5.50;;;;;;;;;;5112463;27;20035;-61
2022/02/07 12:28:01;;;;;;;30.40;4.72;;;;;;;;;;5113202;27;20628;-61
2022/02/07 12:30:31;;;;;;;29.50;5.75;;;;;;;;;;5125475;27;20479;-61
2022/02/07 12:33:03;;;;;;;30.20;4.53;;;;;;;;;;5106679;27;20394;-61
2022/02/07 12:35:30;;;;;;;22.35;3.80;;;;;;;;;;5098712;27;20248;-61
2022/02/07 12:37:56;;;;;;;26.67;4.93;;;;;;;;;;5100186;27;20067;-61
2022/02/07 12:40:23;;;;;;;24.77;3.95;;;;;;;;;;5102155;28;20043;-61
2022/02/07 12:42:51;;;;;;;23.88;3.58;;;;;;;;;;5108133;28;20137;-61
2022/02/07 12:45:18;;;;;;;28.90;4.57;;;;;;;;;;5112451;28;20044;-61
2022/02/07 12:47:49;;;;;;;19.67;3.63;;;;;;;;;;5113187;28;20047;-61
2022/02/07 12:50:17;;;;;;;24.58;3.92;;;;;;;;;;5112686;28;20040;-61
2022/02/07 12:52:44;;;;;;;27.45;5.30;;;;;;;;;;5111507;28;20462;-61
2022/02/07 12:55:13;;;;;;;19.25;4.20;;;;;;;;;;5113371;28;20040;-61
2022/02/07 12:57:40;;;;;;;25.45;4.50;;;;;;;;;;5113018;28;20050;-61
2022/02/07 13:00:08;;;;;;;23.40;4.68;;;;;;;;;;5112322;27;20035;-61
2022/02/07 13:02:34;;;;;;;21.42;3.60;;;;;;;;;;5115515;27;20073;-61
2022/02/07 13:05:00;;;;;;;19.27;3.65;;;;;;;;;;5109774;28;20032;-61
2022/02/07 13:07:31;;;;;;;21.50;4.07;;;;;;;;;;5112977;28;20040;-61
2022/02/07 13:09:57;;;;;;;14.95;3.35;;;;;;;;;;5112625;28;20051;-60
2022/02/07 13:12:38;;;;;;;17.92;4.18;;;;;;;;;;5112135;28;20142;-60
2022/02/07 13:15:12;;;;;;;22.40;5.68;;;;;;;;;;5111576;28;20079;-60
2022/02/07 13:17:39;;;;;;;20.25;3.92;;;;;;;;;;5112026;28;20078;-61
2022/02/07 13:20:07;;;;;;;25.40;3.67;;;;;;;;;;5110015;28;20031;-61
2022/02/07 13:22:33;;;;;;;28.10;4.00;;;;;;;;;;5108676;28;20051;-61
2022/02/07 13:24:59;;;;;;;27.10;4.82;;;;;;;;;;5128144;27;20044;-60
2022/02/07 13:27:26;;;;;;;16.75;2.92;;;;;;;;;;5110632;27;20031;-61
2022/02/07 13:29:57;;;;;;;23.90;4.22;;;;;;;;;;5110911;28;20039;-61
2022/02/07 13:32:26;;;;;;;18.73;4.72;;;;;;;;;;5110656;28;20391;-61
2022/02/07 13:35:03;;;;;;;18.38;3.30;;;;;;;;;;5109036;28;20498;-61
2022/02/07 13:37:32;;;;;;;21.92;3.38;;;;;;;;;;5112118;28;20463;-60
2022/02/07 13:40:04;;;;;;;20.80;3.45;;;;;;;;;;5108656;28;20082;-61
2022/02/07 13:42:31;;;;;;;15.20;3.08;;;;;;;;;;5109284;28;20399;-61
2022/02/07 13:44:59;;;;;;;24.67;3.47;;;;;;;;;;5112326;27;20047;-61
2022/02/07 13:47:26;;;;;;;25.77;4.03;;;;;;;;;;5110856;28;20043;-61
2022/02/07 13:52:49;;;;;;;27.30;3.67;;;;;;;;;;5128337;27;20400;-60
2022/02/07 13:55:17;;;;;;;24.35;3.80;;;;;;;;;;5118566;27;20066;-60
2022/02/07 13:57:50;;;;;;;17.27;4.05;;;;;;;;;;5117963;28;20123;-60
2022/02/07 14:00:17;;;;;;;20.30;4.80;;;;;;;;;;5115955;28;20039;-59
2022/02/07 14:02:44;;;;;;;15.38;2.70;;;;;;;;;;5102533;28;20403;-60
2022/02/07 14:05:12;;;;;;;18.20;2.67;;;;;;;;;;5101687;28;20119;-60
2022/02/07 14:07:49;;;;;;;20.77;3.40;;;;;;;;;;5100187;28;20070;-60
2022/02/07 14:10:16;;;;;;;18.05;2.92;;;;;;;;;;5098742;28;20048;-60
2022/02/07 14:12:42;;;;;;;16.02;2.70;;;;;;;;;;5096807;28;20117;-60
2022/02/07 14:15:09;;;;;;;17.23;2.88;;;;;;;;;;5100786;28;20032;-60
2022/02/07 14:17:41;;;;;;;21.75;2.90;;;;;;;;;;5097557;28;20031;-60
2022/02/07 14:20:10;;;;;;;21.92;3.20;;;;;;;;;;5132754;27;20047;-60
2022/02/07 14:22:37;;;;;;;17.90;3.97;;;;;;;;;;5102765;28;20044;-60
2022/02/07 14:25:03;;;;;;;24.83;3.65;;;;;;;;;;5103050;28;20395;-60
2022/02/07 14:27:31;;;;;;;18.75;3.40;;;;;;;;;;5098854;28;20048;-64
2022/02/07 14:29:57;;;;;;;16.15;3.10;;;;;;;;;;5133708;27;20051;-60
2022/02/07 14:32:24;;;;;;;21.42;3.35;;;;;;;;;;5100588;28;20406;-60
2022/02/07 14:34:50;;;;;;;17.80;2.80;;;;;;;;;;5103392;28;20043;-60
2022/02/07 14:37:18;;;;;;;15.75;3.47;;;;;;;;;;5108318;28;20111;-60
2022/02/07 14:39:44;;;;;;;22.20;2.80;;;;;;;;;;5109906;27;20051;-60
2022/02/07 14:42:11;;;;;;;27.88;4.10;;;;;;;;;;5110000;28;20051;-60
2022/02/07 14:44:57;;;;;;;26.45;3.97;;;;;;;;;;5112117;28;20039;-60
2022/02/07 14:47:40;;;;;;;13.85;2.58;;;;;;;;;;5112896;28;20048;-60
2022/02/07 14:50:07;;;;;;;20.20;2.72;;;;;;;;;;5108561;28;20054;-60
2022/02/07 14:52:33;;;;;;;21.48;3.65;;;;;;;;;;5114896;27;20052;-60
2022/02/07 14:54:59;;;;;;;15.63;3.30;;;;;;;;;;5110298;28;20415;-60
2022/02/07 14:57:26;;;;;;;33.20;4.80;;;;;;;;;;5113363;28;20493;-60
2022/02/07 14:59:52;;;;;;;23.50;3.10;;;;;;;;;;5119588;28;20054;-60
2022/02/07 15:02:20;;;;;;;14.90;2.42;;;;;;;;;;5102772;28;20357;-60
2022/02/07 15:04:48;;;;;;;16.83;2.88;;;;;;;;;;5082441;28;20507;-60
2022/02/07 15:07:14;;;;;;;18.70;3.95;;;;;;;;;;5083995;28;20081;-60
2022/02/07 15:09:42;;;;;;;16.52;3.28;;;;;;;;;;5082057;28;20055;-60
2022/02/07 15:12:08;;;;;;;19.27;4.45;;;;;;;;;;5082666;28;20189;-60
2022/02/07 15:14:35;;;;;;;26.00;3.40;;;;;;;;;;5084395;28;20037;-59
2022/02/07 15:17:02;;;;;;;18.85;2.80;;;;;;;;;;5083247;28;20492;-60
2022/02/07 15:19:29;;;;;;;16.52;2.83;;;;;;;;;;5082285;28;20136;-60
2022/02/07 15:21:55;;;;;;;20.23;3.55;;;;;;;;;;5083786;28;20118;-60
2022/02/07 15:24:24;;;;;;;13.15;2.65;;;;;;;;;;5082762;28;20036;-60
2022/02/07 15:26:50;;;;;;;23.90;3.47;;;;;;;;;;5083398;28;20063;-60
2022/02/07 15:29:17;;;;;;;18.05;3.47;;;;;;;;;;5083710;28;20059;-60
2022/02/07 15:31:48;;;;;;;22.33;3.78;;;;;;;;;;5083374;28;20051;-60
2022/02/07 15:34:16;;;;;;;25.90;3.00;;;;;;;;;;5083228;28;20040;-60
2022/02/07 15:36:42;;;;;;;16.33;2.88;;;;;;;;;;5081776;28;20048;-62
2022/02/07 15:39:08;;;;;;;22.73;2.88;;;;;;;;;;5083344;28;20040;-62
2022/02/07 15:41:36;;;;;;;20.40;4.57;;;;;;;;;;5082771;28;20051;-62
2022/02/07 15:44:02;;;;;;;19.23;2.78;;;;;;;;;;5084959;28;20040;-62
2022/02/07 15:46:30;;;;;;;22.38;2.60;;;;;;;;;;5082326;28;20086;-62
2022/02/07 15:48:56;;;;;;;18.63;3.30;;;;;;;;;;5080880;28;20044;-62
2022/02/07 15:51:24;;;;;;;25.75;3.15;;;;;;;;;;5082139;28;20132;-62
2022/02/07 15:53:52;;;;;;;18.35;2.47;;;;;;;;;;5112425;27;20051;-62
2022/02/07 15:56:18;;;;;;;24.80;4.30;;;;;;;;;;5082379;28;20047;-62
2022/02/07 15:58:44;;;;;;;16.17;2.97;;;;;;;;;;5086125;28;20044;-62
2022/02/07 16:01:11;;;;;;;20.38;2.67;;;;;;;;;;5083723;28;20047;-62
2022/02/07 16:03:37;;;;;;;16.85;2.75;;;;;;;;;;5090410;28;20052;-62
2022/02/07 16:06:03;;;;;;;19.02;2.25;;;;;;;;;;5092889;28;20084;-62
2022/02/07 16:08:30;;;;;;;17.90;2.72;;;;;;;;;;5086983;28;20055;-62
2022/02/07 16:10:59;;;;;;;19.90;4.07;;;;;;;;;;5090799;28;20053;-62
2022/02/07 16:13:26;;;;;;;19.00;3.38;;;;;;;;;;5089897;28;20391;-61
2022/02/07 16:15:53;;;;;;;26.30;3.42;;;;;;;;;;5084416;28;20036;-61
2022/02/07 16:18:20;;;;;;;18.17;2.85;;;;;;;;;;5088153;28;20074;-61
2022/02/07 16:20:49;;;;;;;19.10;2.80;;;;;;;;;;5090843;28;20048;-61
2022/02/07 16:23:15;;;;;;;26.70;3.45;;;;;;;;;;5091665;28;20033;-62
2022/02/07 16:25:42;;;;;;;23.40;5.18;;;;;;;;;;5086256;28;20073;-62
2022/02/07 16:28:12;;;;;;;20.85;3.10;;;;;;;;;;5103239;28;20032;-62
2022/02/07 16:30:38;;;;;;;28.75;3.08;;;;;;;;;;5102805;28;20051;-62
2022/02/07 16:33:05;;;;;;;19.27;2.42;;;;;;;;;;5106309;28;20040;-62
2022/02/07 16:35:31;;;;;;;17.15;3.35;;;;;;;;;;5106690;28;20092;-62
2022/02/07 16:37:57;;;;;;;36.25;4.45;;;;;;;;;;5105593;28;20137;-62
2022/02/07 16:40:24;;;;;;;26.05;4.72;;;;;;;;;;5111183;28;20107;-62
2022/02/07 16:42:50;;;;;;;25.92;4.07;;;;;;;;;;5093957;28;20048;-61
2022/02/07 16:45:25;;;;;;;21.63;3.40;;;;;;;;;;5082923;28;20037;-62
2022/02/07 16:47:51;;;;;;;18.08;2.80;;;;;;;;;;5081011;28;20098;-62
2022/02/07 16:50:17;;;;;;;15.18;3.38;;;;;;;;;;5076390;28;20054;-62
2022/02/07 16:52:44;;;;;;;15.93;2.42;;;;;;;;;;5075079;28;20094;-61